LTFG

Gazipasa Airport

Alanya, Turkey
TAF LTFG 171340Z 1715/1724 VRB02KT CAVOK
Issued Valid From Valid To
Aug-17 @ 13:40 UTC
(an hour ago)
Aug-17 @ 15:00 UTC
(in 2 minutes)
Aug-18 @ 00:00 UTC
(in 9 hours)
Aug-17 @ 15:00 to Aug-18 @ 00:00
TAF LTFG 171340Z 1715/1724 VRB02KT CAVOK
Wind Visibility Clouds Conditions
Variable at 2 knots 10,000+ meters
  • No significant clouds
TAF LTFG 171340Z 1715/1724 VRB02KT CAVOK
Issued Aug-17 @ 13:40 UTC
(an hour ago)
Valid From Aug-17 @ 15:00 UTC
(in 2 minutes)
Valid To Aug-18 @ 00:00 UTC
(in 9 hours)
Aug-17 @ 15:00 - Aug-18 @ 00:00
Wind Visibility
Variable at 2 knots 10,000+ meters
Clouds
  • No significant clouds
Conditions